sensor_id;sensor_type;location;lat;lon;timestamp;pressure;altitude;pressure_sealevel;temperature;humidity
63399;BME280;49533;-34.520;150.798;2022-09-09T00:00:19;100170.72;;;15.21;71.56
63399;BME280;49533;-34.520;150.798;2022-09-09T00:03:00;100169.91;;;15.20;71.72
63399;BME280;49533;-34.520;150.798;2022-09-09T00:05:40;100178.91;;;15.21;71.72
63399;BME280;49533;-34.520;150.798;2022-09-09T00:08:13;100173.81;;;15.19;71.54
63399;BME280;49533;-34.520;150.798;2022-09-09T00:10:45;100172.19;;;15.18;71.71
63399;BME280;49533;-34.520;150.798;2022-09-09T00:13:24;100172.56;;;15.17;71.91
63399;BME280;49533;-34.520;150.798;2022-09-09T00:16:03;100177.66;;;15.18;72.18
63399;BME280;49533;-34.520;150.798;2022-09-09T00:18:59;100171.88;;;15.08;73.71
63399;BME280;49533;-34.520;150.798;2022-09-09T00:21:35;100168.59;;;15.02;74.52
63399;BME280;49533;-34.520;150.798;2022-09-09T00:24:23;100167.59;;;14.94;75.56
63399;BME280;49533;-34.520;150.798;2022-09-09T00:26:56;100166.44;;;14.95;75.77
63399;BME280;49533;-34.520;150.798;2022-09-09T00:29:43;100173.16;;;14.98;75.36
63399;BME280;49533;-34.520;150.798;2022-09-09T00:32:17;100165.41;;;15.00;75.91
63399;BME280;49533;-34.520;150.798;2022-09-09T00:34:53;100175.88;;;14.98;75.80
63399;BME280;49533;-34.520;150.798;2022-09-09T00:37:23;100164.53;;;14.96;75.96
63399;BME280;49533;-34.520;150.798;2022-09-09T00:39:55;100163.28;;;14.93;76.38
63399;BME280;49533;-34.520;150.798;2022-09-09T00:42:25;100158.22;;;14.95;76.77
63399;BME280;49533;-34.520;150.798;2022-09-09T00:45:01;100156.56;;;14.91;77.10
63399;BME280;49533;-34.520;150.798;2022-09-09T00:47:50;100138.66;;;14.93;76.88
63399;BME280;49533;-34.520;150.798;2022-09-09T00:53:35;100138.66;;;14.93;76.17
63399;BME280;49533;-34.520;150.798;2022-09-09T00:56:14;100136.34;;;14.95;75.86
63399;BME280;49533;-34.520;150.798;2022-09-09T00:58:50;100136.94;;;14.89;77.02
63399;BME280;49533;-34.520;150.798;2022-09-09T01:01:24;100138.06;;;14.88;76.77
63399;BME280;49533;-34.520;150.798;2022-09-09T01:03:55;100120.16;;;14.90;76.56
63399;BME280;49533;-34.520;150.798;2022-09-09T01:06:32;100123.72;;;14.91;76.14
63399;BME280;49533;-34.520;150.798;2022-09-09T01:09:14;100111.53;;;14.88;75.67
63399;BME280;49533;-34.520;150.798;2022-09-09T01:12:02;100113.47;;;14.88;75.78
63399;BME280;49533;-34.520;150.798;2022-09-09T01:14:43;100114.84;;;14.82;76.64
63399;BME280;49533;-34.520;150.798;2022-09-09T01:17:24;100097.28;;;14.83;76.94
63399;BME280;49533;-34.520;150.798;2022-09-09T01:20:10;100068.91;;;14.87;77.45
63399;BME280;49533;-34.520;150.798;2022-09-09T01:23:01;100060.34;;;14.89;77.09
63399;BME280;49533;-34.520;150.798;2022-09-09T01:26:00;100058.97;;;14.95;76.73
63399;BME280;49533;-34.520;150.798;2022-09-09T01:28:30;100065.34;;;14.99;76.14
63399;BME280;49533;-34.520;150.798;2022-09-09T01:30:59;100055.97;;;15.00;76.05
63399;BME280;49533;-34.520;150.798;2022-09-09T01:33:27;100054.16;;;15.04;75.54
63399;BME280;49533;-34.520;150.798;2022-09-09T01:36:04;100038.19;;;15.06;75.25
63399;BME280;49533;-34.520;150.798;2022-09-09T01:38:35;100024.50;;;15.06;74.99
63399;BME280;49533;-34.520;150.798;2022-09-09T01:41:03;100045.50;;;15.02;74.85
63399;BME280;49533;-34.520;150.798;2022-09-09T01:43:31;100060.50;;;15.08;74.73
63399;BME280;49533;-34.520;150.798;2022-09-09T01:46:00;100058.22;;;15.10;74.47
63399;BME280;49533;-34.520;150.798;2022-09-09T01:48:28;100034.38;;;15.11;74.39
63399;BME280;49533;-34.520;150.798;2022-09-09T01:50:56;99987.53;;;15.12;74.30
63399;BME280;49533;-34.520;150.798;2022-09-09T01:53:23;100017.28;;;15.14;74.27
63399;BME280;49533;-34.520;150.798;2022-09-09T01:56:06;100039.25;;;15.17;73.84
63399;BME280;49533;-34.520;150.798;2022-09-09T01:58:51;100036.19;;;15.19;73.94
63399;BME280;49533;-34.520;150.798;2022-09-09T02:04:45;100013.22;;;15.23;73.73
63399;BME280;49533;-34.520;150.798;2022-09-09T02:07:30;100024.63;;;15.26;73.64
63399;BME280;49533;-34.520;150.798;2022-09-09T02:10:12;100016.06;;;15.27;73.73
63399;BME280;49533;-34.520;150.798;2022-09-09T02:12:47;100010.22;;;15.29;73.65
63399;BME280;49533;-34.520;150.798;2022-09-09T02:15:24;100005.19;;;15.31;74.16
63399;BME280;49533;-34.520;150.798;2022-09-09T02:17:56;100005.66;;;15.33;73.94
63399;BME280;49533;-34.520;150.798;2022-09-09T02:20:25;100003.00;;;15.36;73.84
63399;BME280;49533;-34.520;150.798;2022-09-09T02:22:54;100003.44;;;15.38;73.80
63399;BME280;49533;-34.520;150.798;2022-09-09T02:25:24;99999.22;;;15.41;73.77
63399;BME280;49533;-34.520;150.798;2022-09-09T02:27:53;99997.25;;;15.41;73.72
63399;BME280;49533;-34.520;150.798;2022-09-09T02:30:20;99989.94;;;15.46;73.67
63399;BME280;49533;-34.520;150.798;2022-09-09T02:32:50;99992.34;;;15.47;73.88
63399;BME280;49533;-34.520;150.798;2022-09-09T02:35:21;99992.75;;;15.49;73.81
63399;BME280;49533;-34.520;150.798;2022-09-09T02:37:53;99990.91;;;15.53;73.88
63399;BME280;49533;-34.520;150.798;2022-09-09T02:40:23;99981.53;;;15.54;73.61
63399;BME280;49533;-34.520;150.798;2022-09-09T02:42:50;99972.19;;;15.55;73.44
63399;BME280;49533;-34.520;150.798;2022-09-09T02:45:20;99979.69;;;15.58;73.51
63399;BME280;49533;-34.520;150.798;2022-09-09T02:48:08;99979.34;;;15.60;73.56
63399;BME280;49533;-34.520;150.798;2022-09-09T02:50:49;99981.38;;;15.63;73.83
63399;BME280;49533;-34.520;150.798;2022-09-09T02:53:24;99981.81;;;15.65;73.87
63399;BME280;49533;-34.520;150.798;2022-09-09T02:56:07;99980.31;;;15.68;73.64
63399;BME280;49533;-34.520;150.798;2022-09-09T02:58:36;99982.63;;;15.65;73.26
63399;BME280;49533;-34.520;150.798;2022-09-09T03:01:03;99977.94;;;15.66;73.38
63399;BME280;49533;-34.520;150.798;2022-09-09T03:03:31;99980.31;;;15.68;73.36
63399;BME280;49533;-34.520;150.798;2022-09-09T03:05:58;99978.03;;;15.70;73.35
63399;BME280;49533;-34.520;150.798;2022-09-09T03:08:25;99975.75;;;15.72;72.94
63399;BME280;49533;-34.520;150.798;2022-09-09T03:10:54;99971.50;;;15.74;72.74
63399;BME280;49533;-34.520;150.798;2022-09-09T03:13:22;99970.44;;;15.79;73.20
63399;BME280;49533;-34.520;150.798;2022-09-09T03:15:49;99967.81;;;15.82;73.30
63399;BME280;49533;-34.520;150.798;2022-09-09T03:18:16;99964.25;;;15.82;73.13
63399;BME280;49533;-34.520;150.798;2022-09-09T03:20:43;99967.44;;;15.84;73.24
63399;BME280;49533;-34.520;150.798;2022-09-09T03:23:10;99960.88;;;15.89;73.16
63399;BME280;49533;-34.520;150.798;2022-09-09T03:25:39;99958.94;;;15.89;73.30
63399;BME280;49533;-34.520;150.798;2022-09-09T03:28:12;99954.63;;;15.88;72.93
63399;BME280;49533;-34.520;150.798;2022-09-09T03:30:39;99950.72;;;15.89;72.47
63399;BME280;49533;-34.520;150.798;2022-09-09T03:33:06;99959.72;;;15.90;72.45
63399;BME280;49533;-34.520;150.798;2022-09-09T03:35:33;99955.47;;;15.92;72.48
63399;BME280;49533;-34.520;150.798;2022-09-09T03:38:00;99947.25;;;15.92;72.33
63399;BME280;49533;-34.520;150.798;2022-09-09T03:40:27;99956.28;;;15.93;72.50
63399;BME280;49533;-34.520;150.798;2022-09-09T03:42:54;99963.78;;;15.96;72.28
63399;BME280;49533;-34.520;150.798;2022-09-09T03:45:21;99959.91;;;15.97;72.04
63399;BME280;49533;-34.520;150.798;2022-09-09T03:47:48;99970.84;;;15.97;72.06
63399;BME280;49533;-34.520;150.798;2022-09-09T03:50:16;99963.78;;;15.96;72.11
63399;BME280;49533;-34.520;150.798;2022-09-09T03:52:44;99966.16;;;15.97;71.98
63399;BME280;49533;-34.520;150.798;2022-09-09T03:55:13;99954.06;;;15.98;72.07
63399;BME280;49533;-34.520;150.798;2022-09-09T03:57:40;99953.69;;;16.00;72.17
63399;BME280;49533;-34.520;150.798;2022-09-09T04:00:08;99949.03;;;16.00;71.96
63399;BME280;49533;-34.520;150.798;2022-09-09T04:02:35;99945.13;;;16.01;71.99
63399;BME280;49533;-34.520;150.798;2022-09-09T04:05:02;99932.22;;;16.02;72.08
63399;BME280;49533;-34.520;150.798;2022-09-09T04:07:29;99927.19;;;16.04;72.12
63399;BME280;49533;-34.520;150.798;2022-09-09T04:09:56;99929.19;;;16.07;72.25
63399;BME280;49533;-34.520;150.798;2022-09-09T04:12:23;99931.16;;;16.06;72.18
63399;BME280;49533;-34.520;150.798;2022-09-09T04:14:50;99928.84;;;16.08;72.17
63399;BME280;49533;-34.520;150.798;2022-09-09T04:17:17;99926.91;;;16.09;72.19
63399;BME280;49533;-34.520;150.798;2022-09-09T04:19:44;99928.56;;;16.14;72.26
63399;BME280;49533;-34.520;150.798;2022-09-09T04:22:12;99920.78;;;16.16;72.32
63399;BME280;49533;-34.520;150.798;2022-09-09T04:24:39;99920.06;;;16.19;72.26
63399;BME280;49533;-34.520;150.798;2022-09-09T04:27:06;99913.16;;;16.44;71.75
63399;BME280;49533;-34.520;150.798;2022-09-09T04:29:34;99913.41;;;16.59;70.95
63399;BME280;49533;-34.520;150.798;2022-09-09T04:32:01;99908.59;;;16.52;71.00
63399;BME280;49533;-34.520;150.798;2022-09-09T04:34:28;99908.38;;;16.41;71.20
63399;BME280;49533;-34.520;150.798;2022-09-09T04:36:56;99919.34;;;16.41;71.22
63399;BME280;49533;-34.520;150.798;2022-09-09T04:39:23;99923.81;;;16.49;70.72
63399;BME280;49533;-34.520;150.798;2022-09-09T04:41:50;99916.38;;;16.50;70.67
63399;BME280;49533;-34.520;150.798;2022-09-09T04:44:17;99918.69;;;16.48;70.83
63399;BME280;49533;-34.520;150.798;2022-09-09T04:46:45;99910.81;;;16.66;70.18
63399;BME280;49533;-34.520;150.798;2022-09-09T04:49:12;99904.72;;;16.76;69.75
63399;BME280;49533;-34.520;150.798;2022-09-09T04:51:39;99902.78;;;16.77;70.14
63399;BME280;49533;-34.520;150.798;2022-09-09T04:54:06;99909.94;;;16.81;69.76
63399;BME280;49533;-34.520;150.798;2022-09-09T04:56:33;99906.13;;;16.86;69.51
63399;BME280;49533;-34.520;150.798;2022-09-09T04:59:00;99907.78;;;16.90;69.33
63399;BME280;49533;-34.520;150.798;2022-09-09T05:01:29;99907.63;;;16.83;69.74
63399;BME280;49533;-34.520;150.798;2022-09-09T05:03:56;99907.19;;;16.81;69.93
63399;BME280;49533;-34.520;150.798;2022-09-09T05:06:24;99903.31;;;16.82;69.39
63399;BME280;49533;-34.520;150.798;2022-09-09T05:08:51;99890.63;;;16.97;69.19
63399;BME280;49533;-34.520;150.798;2022-09-09T05:11:20;99895.59;;;17.11;68.72
63399;BME280;49533;-34.520;150.798;2022-09-09T05:13:49;99898.50;;;16.99;68.89
63399;BME280;49533;-34.520;150.798;2022-09-09T05:16:17;99899.91;;;16.89;69.16
63399;BME280;49533;-34.520;150.798;2022-09-09T05:18:45;99900.28;;;16.87;68.96
63399;BME280;49533;-34.520;150.798;2022-09-09T05:21:13;99886.47;;;16.84;69.07
63399;BME280;49533;-34.520;150.798;2022-09-09T05:23:40;99889.59;;;16.82;69.15
63399;BME280;49533;-34.520;150.798;2022-09-09T05:26:11;99893.56;;;16.85;69.23
63399;BME280;49533;-34.520;150.798;2022-09-09T05:28:39;99892.75;;;16.84;69.09
63399;BME280;49533;-34.520;150.798;2022-09-09T05:31:08;99891.91;;;16.80;68.79
63399;BME280;49533;-34.520;150.798;2022-09-09T05:33:38;99890.69;;;16.78;68.71
63399;BME280;49533;-34.520;150.798;2022-09-09T05:36:10;99900.84;;;16.77;69.08
63399;BME280;49533;-34.520;150.798;2022-09-09T05:38:40;99888.28;;;16.76;68.82
63399;BME280;49533;-34.520;150.798;2022-09-09T05:41:08;99894.94;;;16.75;68.99
63399;BME280;49533;-34.520;150.798;2022-09-09T05:43:37;99896.50;;;16.76;68.88
63399;BME280;49533;-34.520;150.798;2022-09-09T05:46:09;99896.50;;;16.76;68.68
63399;BME280;49533;-34.520;150.798;2022-09-09T05:48:38;99894.94;;;16.75;68.97
63399;BME280;49533;-34.520;150.798;2022-09-09T05:51:09;99894.28;;;16.82;69.09
63399;BME280;49533;-34.520;150.798;2022-09-09T05:53:39;99898.81;;;16.93;69.10
63399;BME280;49533;-34.520;150.798;2022-09-09T05:56:08;99893.88;;;17.03;68.97
63399;BME280;49533;-34.520;150.798;2022-09-09T05:58:38;99899.56;;;17.13;68.97
63399;BME280;49533;-34.520;150.798;2022-09-09T06:01:09;99891.34;;;17.17;68.74
63399;BME280;49533;-34.520;150.798;2022-09-09T06:03:38;99893.38;;;17.20;68.92
63399;BME280;49533;-34.520;150.798;2022-09-09T06:06:08;99880.94;;;17.26;68.63
63399;BME280;49533;-34.520;150.798;2022-09-09T06:08:36;99887.25;;;17.30;68.55
63399;BME280;49533;-34.520;150.798;2022-09-09T06:11:07;99887.75;;;17.36;68.55
63399;BME280;49533;-34.520;150.798;2022-09-09T06:13:35;99887.38;;;17.37;68.79
63399;BME280;49533;-34.520;150.798;2022-09-09T06:16:09;99890.56;;;17.39;68.73
63399;BME280;49533;-34.520;150.798;2022-09-09T06:18:38;99890.19;;;17.41;68.62
63399;BME280;49533;-34.520;150.798;2022-09-09T06:21:07;99895.31;;;17.43;68.48
63399;BME280;49533;-34.520;150.798;2022-09-09T06:23:35;99884.16;;;17.32;68.56
63399;BME280;49533;-34.520;150.798;2022-09-09T06:26:07;99895.13;;;17.32;68.71
63399;BME280;49533;-34.520;150.798;2022-09-09T06:28:35;99890.97;;;17.42;68.23
63399;BME280;49533;-34.520;150.798;2022-09-09T06:31:05;99896.94;;;17.47;67.83
63399;BME280;49533;-34.520;150.798;2022-09-09T06:33:35;99900.13;;;17.49;67.85
63399;BME280;49533;-34.520;150.798;2022-09-09T06:36:03;99907.56;;;17.49;67.67
63399;BME280;49533;-34.520;150.798;2022-09-09T06:38:31;99904.09;;;17.52;67.96
63399;BME280;49533;-34.520;150.798;2022-09-09T06:40:59;99911.16;;;17.53;67.78
63399;BME280;49533;-34.520;150.798;2022-09-09T06:43:28;99918.25;;;17.54;67.84
63399;BME280;49533;-34.520;150.798;2022-09-09T06:45:58;99910.78;;;17.54;67.59
63399;BME280;49533;-34.520;150.798;2022-09-09T06:48:26;99915.91;;;17.56;67.44
63399;BME280;49533;-34.520;150.798;2022-09-09T06:51:06;99908.47;;;17.56;67.56
63399;BME280;49533;-34.520;150.798;2022-09-09T06:53:34;99921.03;;;17.57;67.10
63399;BME280;49533;-34.520;150.798;2022-09-09T06:56:17;99913.59;;;17.58;67.22
63399;BME280;49533;-34.520;150.798;2022-09-09T06:58:44;99914.38;;;17.58;67.25
63399;BME280;49533;-34.520;150.798;2022-09-09T07:01:15;99916.75;;;17.60;67.00
63399;BME280;49533;-34.520;150.798;2022-09-09T07:03:45;99916.75;;;17.60;66.82
63399;BME280;49533;-34.520;150.798;2022-09-09T07:06:18;99913.22;;;17.59;67.13
63399;BME280;49533;-34.520;150.798;2022-09-09T07:08:50;99915.53;;;17.57;66.89
63399;BME280;49533;-34.520;150.798;2022-09-09T07:11:19;99917.56;;;17.60;66.79
63399;BME280;49533;-34.520;150.798;2022-09-09T07:13:47;99921.09;;;17.61;67.01
63399;BME280;49533;-34.520;150.798;2022-09-09T07:16:17;99919.09;;;17.58;67.03
63399;BME280;49533;-34.520;150.798;2022-09-09T07:18:44;99915.53;;;17.57;66.73
63399;BME280;49533;-34.520;150.798;2022-09-09T07:21:13;99913.59;;;17.58;66.82
63399;BME280;49533;-34.520;150.798;2022-09-09T07:23:41;99916.34;;;17.58;66.89
63399;BME280;49533;-34.520;150.798;2022-09-09T07:26:12;99923.78;;;17.57;66.88
63399;BME280;49533;-34.520;150.798;2022-09-09T07:28:41;99927.31;;;17.58;66.79
63399;BME280;49533;-34.520;150.798;2022-09-09T07:31:15;99923.78;;;17.57;66.81
63399;BME280;49533;-34.520;150.798;2022-09-09T07:33:44;99932.38;;;17.56;66.95
63399;BME280;49533;-34.520;150.798;2022-09-09T07:36:15;99937.16;;;17.59;66.96
63399;BME280;49533;-34.520;150.798;2022-09-09T07:38:45;99929.72;;;17.59;66.86
63399;BME280;49533;-34.520;150.798;2022-09-09T07:41:17;99932.03;;;17.57;66.95
63399;BME280;49533;-34.520;150.798;2022-09-09T07:43:46;99944.97;;;17.57;66.99
63399;BME280;49533;-34.520;150.798;2022-09-09T07:46:15;99943.00;;;17.57;67.04
63399;BME280;49533;-34.520;150.798;2022-09-09T07:48:45;99953.22;;;17.57;66.87
63399;BME280;49533;-34.520;150.798;2022-09-09T07:51:15;99955.53;;;17.55;66.81
63399;BME280;49533;-34.520;150.798;2022-09-09T07:53:45;99966.50;;;17.55;66.91
63399;BME280;49533;-34.520;150.798;2022-09-09T07:56:17;99967.25;;;17.52;67.21
63399;BME280;49533;-34.520;150.798;2022-09-09T07:58:46;99971.16;;;17.51;66.95
63399;BME280;49533;-34.520;150.798;2022-09-09T08:01:18;99973.09;;;17.50;67.26
63399;BME280;49533;-34.520;150.798;2022-09-09T08:03:47;99980.56;;;17.50;66.92
63399;BME280;49533;-34.520;150.798;2022-09-09T08:06:14;99986.06;;;17.50;67.13
63399;BME280;49533;-34.520;150.798;2022-09-09T08:08:41;99988.00;;;17.49;67.23
63399;BME280;49533;-34.520;150.798;2022-09-09T08:11:13;99973.53;;;17.52;67.12
63399;BME280;49533;-34.520;150.798;2022-09-09T08:13:42;99980.19;;;17.51;67.01
63399;BME280;49533;-34.520;150.798;2022-09-09T08:16:16;99969.53;;;17.46;67.26
63399;BME280;49533;-34.520;150.798;2022-09-09T08:18:44;99978.59;;;17.50;67.05
63399;BME280;49533;-34.520;150.798;2022-09-09T08:21:14;99977.81;;;17.50;67.15
63399;BME280;49533;-34.520;150.798;2022-09-09T08:23:45;99976.94;;;17.46;67.25
63399;BME280;49533;-34.520;150.798;2022-09-09T08:26:16;99983.31;;;17.50;67.25
63399;BME280;49533;-34.520;150.798;2022-09-09T08:28:44;99987.22;;;17.49;67.17
63399;BME280;49533;-34.520;150.798;2022-09-09T08:31:15;99998.91;;;17.46;67.21
63399;BME280;49533;-34.520;150.798;2022-09-09T08:33:43;99993.44;;;17.46;67.39
63399;BME280;49533;-34.520;150.798;2022-09-09T08:36:14;100006.00;;;17.47;67.10
63399;BME280;49533;-34.520;150.798;2022-09-09T08:38:42;100005.22;;;17.46;67.26
63399;BME280;49533;-34.520;150.798;2022-09-09T08:41:30;99989.53;;;17.47;67.26
63399;BME280;49533;-34.520;150.798;2022-09-09T08:44:30;99984.78;;;17.44;67.17
63399;BME280;49533;-34.520;150.798;2022-09-09T08:50:19;100004.38;;;17.42;67.13
63399;BME280;49533;-34.520;150.798;2022-09-09T08:53:04;100008.97;;;17.38;67.23
63399;BME280;49533;-34.520;150.798;2022-09-09T08:55:42;100019.19;;;17.37;67.32
63399;BME280;49533;-34.520;150.798;2022-09-09T08:58:17;100015.66;;;17.37;67.37
63399;BME280;49533;-34.520;150.798;2022-09-09T09:03:43;100001.91;;;17.37;67.10
63399;BME280;49533;-34.520;150.798;2022-09-09T09:06:33;100002.28;;;17.35;67.25
63399;BME280;49533;-34.520;150.798;2022-09-09T09:09:21;100009.38;;;17.36;67.16
63399;BME280;49533;-34.520;150.798;2022-09-09T09:11:56;100016.00;;;17.35;67.02
63399;BME280;49533;-34.520;150.798;2022-09-09T09:14:29;100017.53;;;17.33;67.21
63399;BME280;49533;-34.520;150.798;2022-09-09T09:17:04;100018.69;;;17.32;67.19
63399;BME280;49533;-34.520;150.798;2022-09-09T09:19:34;100020.66;;;17.31;67.40
63399;BME280;49533;-34.520;150.798;2022-09-09T09:22:22;100021.78;;;17.30;67.19
63399;BME280;49533;-34.520;150.798;2022-09-09T09:25:11;100030.03;;;17.30;67.29
63399;BME280;49533;-34.520;150.798;2022-09-09T09:27:57;100030.41;;;17.29;67.33
63399;BME280;49533;-34.520;150.798;2022-09-09T09:30:38;100028.03;;;17.27;67.19
63399;BME280;49533;-34.520;150.798;2022-09-09T09:33:16;100038.22;;;17.27;67.11
63399;BME280;49533;-34.520;150.798;2022-09-09T09:35:44;100024.84;;;17.25;67.23
63399;BME280;49533;-34.520;150.798;2022-09-09T09:38:19;100034.69;;;17.26;67.00
63399;BME280;49533;-34.520;150.798;2022-09-09T09:40:53;100038.94;;;17.24;67.29
63399;BME280;49533;-34.520;150.798;2022-09-09T09:43:26;100034.59;;;17.23;67.04
63399;BME280;49533;-34.520;150.798;2022-09-09T09:45:55;100036.56;;;17.22;67.22
63399;BME280;49533;-34.520;150.798;2022-09-09T09:48:24;100043.22;;;17.21;67.29
63399;BME280;49533;-34.520;150.798;2022-09-09T09:51:00;100034.47;;;17.15;67.51
63399;BME280;49533;-34.520;150.798;2022-09-09T09:53:31;100048.25;;;17.19;67.25
63399;BME280;49533;-34.520;150.798;2022-09-09T09:56:01;100044.72;;;17.19;67.27
63399;BME280;49533;-34.520;150.798;2022-09-09T09:58:32;100042.28;;;17.13;67.24
63399;BME280;49533;-34.520;150.798;2022-09-09T10:01:00;100044.25;;;17.13;67.15
63399;BME280;49533;-34.520;150.798;2022-09-09T10:03:31;100045.81;;;17.14;67.15
63399;BME280;49533;-34.520;150.798;2022-09-09T10:05:58;100043.84;;;17.14;67.23
63399;BME280;49533;-34.520;150.798;2022-09-09T10:08:27;100047.78;;;17.13;67.12
63399;BME280;49533;-34.520;150.798;2022-09-09T10:11:12;100045.75;;;17.10;67.21
63399;BME280;49533;-34.520;150.798;2022-09-09T10:14:10;100049.28;;;17.11;67.08
63399;BME280;49533;-34.520;150.798;2022-09-09T10:16:56;100053.19;;;17.10;67.23
63399;BME280;49533;-34.520;150.798;2022-09-09T10:19:31;100057.09;;;17.09;67.19
63399;BME280;49533;-34.520;150.798;2022-09-09T10:22:08;100061.00;;;17.08;67.06
63399;BME280;49533;-34.520;150.798;2022-09-09T10:30:29;100058.56;;;17.03;67.20
63399;BME280;49533;-34.520;150.798;2022-09-09T10:33:10;100056.94;;;17.02;67.12
63399;BME280;49533;-34.520;150.798;2022-09-09T10:36:13;100051.84;;;17.00;67.33
63399;BME280;49533;-34.520;150.798;2022-09-09T10:38:46;100047.47;;;16.99;67.18
63399;BME280;49533;-34.520;150.798;2022-09-09T10:41:31;100051.75;;;16.97;67.28
63399;BME280;49533;-34.520;150.798;2022-09-09T10:44:17;100048.22;;;16.96;67.11
63399;BME280;49533;-34.520;150.798;2022-09-09T10:47:11;100041.94;;;16.95;67.28
63399;BME280;49533;-34.520;150.798;2022-09-09T10:50:01;100043.06;;;16.94;67.05
63399;BME280;49533;-34.520;150.798;2022-09-09T10:52:51;100042.66;;;16.92;66.86
63399;BME280;49533;-34.520;150.798;2022-09-09T10:55:32;100035.56;;;16.91;66.92
63399;BME280;49533;-34.520;150.798;2022-09-09T10:58:03;100039.47;;;16.90;66.80
63399;BME280;49533;-34.520;150.798;2022-09-09T11:00:42;100033.84;;;16.83;66.71
63399;BME280;49533;-34.520;150.798;2022-09-09T11:03:21;100030.75;;;16.85;66.79
63399;BME280;49533;-34.520;150.798;2022-09-09T11:06:02;100027.63;;;16.86;66.89
63399;BME280;49533;-34.520;150.798;2022-09-09T11:08:33;100029.59;;;16.86;66.94
63399;BME280;49533;-34.520;150.798;2022-09-09T11:11:19;100032.69;;;16.84;66.92
63399;BME280;49533;-34.520;150.798;2022-09-09T11:14:11;100025.97;;;16.82;66.96
63399;BME280;49533;-34.520;150.798;2022-09-09T11:16:53;100028.28;;;16.80;66.80
63399;BME280;49533;-34.520;150.798;2022-09-09T11:19:40;100018.38;;;16.75;66.79
63399;BME280;49533;-34.520;150.798;2022-09-09T11:22:28;100014.94;;;16.78;66.81
63399;BME280;49533;-34.520;150.798;2022-09-09T11:25:16;100019.94;;;16.76;66.61
63399;BME280;49533;-34.520;150.798;2022-09-09T11:28:24;100018.38;;;16.75;66.78
63399;BME280;49533;-34.520;150.798;2022-09-09T11:31:16;100019.50;;;16.74;66.81
63399;BME280;49533;-34.520;150.798;2022-09-09T11:36:52;100006.06;;;16.69;66.95
63399;BME280;49533;-34.520;150.798;2022-09-09T11:39:44;100008.03;;;16.68;66.70
63399;BME280;49533;-34.520;150.798;2022-09-09T11:42:20;100002.94;;;16.67;66.85
63399;BME280;49533;-34.520;150.798;2022-09-09T11:44:47;99993.09;;;16.66;66.87
63399;BME280;49533;-34.520;150.798;2022-09-09T11:47:28;100004.44;;;16.64;66.44
63399;BME280;49533;-34.520;150.798;2022-09-09T11:50:35;99996.56;;;16.63;66.53
63399;BME280;49533;-34.520;150.798;2022-09-09T11:55:37;99996.50;;;16.59;66.71
63399;BME280;49533;-34.520;150.798;2022-09-09T11:58:15;100003.91;;;16.59;66.44
63399;BME280;49533;-34.520;150.798;2022-09-09T12:00:44;100003.91;;;16.59;66.58
63399;BME280;49533;-34.520;150.798;2022-09-09T12:03:35;100009.78;;;16.57;66.42
63399;BME280;49533;-34.520;150.798;2022-09-09T12:06:17;100006.25;;;16.57;66.22
63399;BME280;49533;-34.520;150.798;2022-09-09T12:08:51;100001.44;;;16.53;66.05
63399;BME280;49533;-34.520;150.798;2022-09-09T12:11:26;99996.34;;;16.52;66.00
63399;BME280;49533;-34.520;150.798;2022-09-09T12:13:58;99980.25;;;16.50;66.25
63399;BME280;49533;-34.520;150.798;2022-09-09T12:16:34;99988.84;;;16.49;65.83
63399;BME280;49533;-34.520;150.798;2022-09-09T12:19:12;99990.75;;;16.48;65.96
63399;BME280;49533;-34.520;150.798;2022-09-09T12:21:58;99989.97;;;16.48;65.76
63399;BME280;49533;-34.520;150.798;2022-09-09T12:24:37;99986.78;;;16.46;65.91
63399;BME280;49533;-34.520;150.798;2022-09-09T12:27:25;99985.16;;;16.41;65.45
63399;BME280;49533;-34.520;150.798;2022-09-09T12:30:07;99980.91;;;16.44;65.74
63399;BME280;49533;-34.520;150.798;2022-09-09T12:32:36;99980.81;;;16.40;65.44
63399;BME280;49533;-34.520;150.798;2022-09-09T12:35:13;99971.00;;;16.39;65.23
63399;BME280;49533;-34.520;150.798;2022-09-09T12:37:52;99981.53;;;16.37;65.28
63399;BME280;49533;-34.520;150.798;2022-09-09T12:40:25;99976.06;;;16.37;65.11
63399;BME280;49533;-34.520;150.798;2022-09-09T12:42:53;99962.28;;;16.34;64.97
63399;BME280;49533;-34.520;150.798;2022-09-09T12:45:23;99968.09;;;16.32;64.74
63399;BME280;49533;-34.520;150.798;2022-09-09T12:47:58;99956.69;;;16.30;64.94
63399;BME280;49533;-34.520;150.798;2022-09-09T12:50:33;99962.91;;;16.27;64.58
63399;BME280;49533;-34.520;150.798;2022-09-09T12:53:12;99951.50;;;16.25;64.34
63399;BME280;49533;-34.520;150.798;2022-09-09T12:55:50;99950.28;;;16.22;64.39
63399;BME280;49533;-34.520;150.798;2022-09-09T12:58:19;99955.69;;;16.19;64.16
63399;BME280;49533;-34.520;150.798;2022-09-09T13:00:51;99950.22;;;16.19;63.91
63399;BME280;49533;-34.520;150.798;2022-09-09T13:03:20;99952.50;;;16.17;63.91
63399;BME280;49533;-34.520;150.798;2022-09-09T13:05:48;99946.59;;;16.15;63.91
63399;BME280;49533;-34.520;150.798;2022-09-09T13:08:16;99950.50;;;16.14;63.91
63399;BME280;49533;-34.520;150.798;2022-09-09T13:10:50;99950.03;;;16.12;63.72
63399;BME280;49533;-34.520;150.798;2022-09-09T13:13:23;99944.13;;;16.09;63.56
63399;BME280;49533;-34.520;150.798;2022-09-09T13:15:57;99951.91;;;16.07;63.59
63399;BME280;49533;-34.520;150.798;2022-09-09T13:18:28;99945.63;;;16.07;63.40
63399;BME280;49533;-34.520;150.798;2022-09-09T13:20:57;99954.56;;;16.04;63.46